createdAt,value
2018-05-16T00:02:32.116Z,12.93
2018-05-16T00:07:25.810Z,10.90
2018-05-16T00:12:19.576Z,11.47
2018-05-16T00:17:13.378Z,11.53
2018-05-16T00:22:07.787Z,11.00
2018-05-16T00:27:02.177Z,9.80
2018-05-16T00:31:55.840Z,11.90
2018-05-16T00:36:49.837Z,9.57
2018-05-16T00:41:43.589Z,13.03
2018-05-16T00:46:37.162Z,11.13
2018-05-16T00:51:32.723Z,17.17
2018-05-16T01:05:34.474Z,12.67
2018-05-16T01:10:28.129Z,12.33
2018-05-16T01:24:29.595Z,13.27
2018-05-16T01:38:32.102Z,12.73
2018-05-16T01:43:25.689Z,11.27
2018-05-16T01:48:19.244Z,9.43
2018-05-16T01:53:13.170Z,9.40
2018-05-16T01:58:06.901Z,10.13
2018-05-16T02:03:00.524Z,10.60
2018-05-16T02:07:53.981Z,10.80
2018-05-16T02:12:47.625Z,12.43
2018-05-16T02:17:41.124Z,12.67
2018-05-16T02:22:34.767Z,13.23
2018-05-16T02:27:28.816Z,15.13
2018-05-16T02:32:23.090Z,11.73
2018-05-16T02:37:16.686Z,15.90
2018-05-16T02:42:10.159Z,12.50
2018-05-16T02:47:03.669Z,14.33
2018-05-16T02:51:57.255Z,10.23
2018-05-16T02:56:50.862Z,10.60
2018-05-16T03:01:44.395Z,9.33
2018-05-16T03:06:37.926Z,13.03
2018-05-16T03:11:31.435Z,14.13
2018-05-16T03:16:24.959Z,14.73
2018-05-16T03:21:18.518Z,14.43
2018-05-16T03:26:12.186Z,12.60
2018-05-16T03:31:05.706Z,12.83
2018-05-16T03:45:07.915Z,6.60
2018-05-16T03:50:01.540Z,7.10
2018-05-16T03:54:55.016Z,7.37
2018-05-16T04:00:06.141Z,7.50
2018-05-16T04:04:59.799Z,6.23
2018-05-16T04:09:53.346Z,6.60
2018-05-16T04:14:47.083Z,5.80
2018-05-16T04:19:40.588Z,8.83
2018-05-16T04:24:34.151Z,7.97
2018-05-16T04:29:28.955Z,8.17
2018-05-16T04:34:23.236Z,7.37
2018-05-16T04:39:16.759Z,7.80
2018-05-16T04:44:10.275Z,9.93
2018-05-16T04:49:03.868Z,9.83
2018-05-16T04:53:57.417Z,9.50
2018-05-16T04:58:51.724Z,7.77
2018-05-16T05:03:46.083Z,8.63
2018-05-16T05:08:39.576Z,7.30
2018-05-16T05:13:33.423Z,6.87
2018-05-16T05:18:26.982Z,7.07
2018-05-16T05:23:20.455Z,8.07
2018-05-16T05:28:14.015Z,8.10
2018-05-16T05:33:07.639Z,7.80
2018-05-16T05:38:01.234Z,6.67
2018-05-16T05:42:55.623Z,6.93
2018-05-16T05:47:50.173Z,8.77
2018-05-16T05:52:43.884Z,8.17
2018-05-16T05:57:37.439Z,8.33
2018-05-16T06:02:31.245Z,11.23
2018-05-16T06:07:25.956Z,9.13
2018-05-16T06:12:19.704Z,7.67
2018-05-16T06:17:17.653Z,7.30
2018-05-16T06:22:11.153Z,7.90
2018-05-16T06:27:04.801Z,8.47
2018-05-16T06:31:58.228Z,9.47
2018-05-16T06:36:52.726Z,10.53
2018-05-16T06:41:46.995Z,12.07
2018-05-16T06:46:40.464Z,12.87
2018-05-16T06:51:35.500Z,13.77
2018-05-16T06:56:29.048Z,15.70
2018-05-16T07:01:23.334Z,15.27
2018-05-16T07:06:16.839Z,19.77
2018-05-16T07:11:10.368Z,16.57
2018-05-16T07:16:04.667Z,17.63
2018-05-16T07:20:58.339Z,17.47
2018-05-16T07:25:52.695Z,18.90
2018-05-16T07:30:46.910Z,16.77
2018-05-16T07:35:40.423Z,18.47
2018-05-16T07:40:33.986Z,17.20
2018-05-16T07:45:28.076Z,16.33
2018-05-16T07:50:23.351Z,16.70
2018-05-16T07:55:20.728Z,16.63
2018-05-16T08:00:28.046Z,15.97
2018-05-16T08:10:53.482Z,17.90
2018-05-16T08:15:48.097Z,15.97
2018-05-16T08:20:43.369Z,14.40
2018-05-16T08:31:08.458Z,14.33
2018-05-16T08:36:03.017Z,14.10
2018-05-16T08:40:57.183Z,13.90
2018-05-16T08:45:51.351Z,15.67
2018-05-16T08:50:46.928Z,14.23
2018-05-16T08:55:40.626Z,14.90
2018-05-16T09:00:35.412Z,13.40
2018-05-16T09:05:29.014Z,14.70
2018-05-16T09:10:33.414Z,12.87
2018-05-16T09:15:30.976Z,11.93
2018-05-16T09:20:28.193Z,11.80
2018-05-16T09:30:52.891Z,11.10
2018-05-16T09:35:46.907Z,7.20
2018-05-16T09:40:41.826Z,6.37
2018-05-16T09:45:37.247Z,4.60
2018-05-16T09:56:03.212Z,5.30
2018-05-16T10:00:56.916Z,6.80
2018-05-16T10:11:21.152Z,5.43
2018-05-16T10:16:15.926Z,6.97
2018-05-16T10:26:39.598Z,5.50
2018-05-16T10:31:34.799Z,5.87
2018-05-16T10:36:31.243Z,5.40
2018-05-16T10:41:25.881Z,6.03
2018-05-16T10:46:20.602Z,7.07
2018-05-16T10:51:14.591Z,5.60
2018-05-16T10:56:21.889Z,8.50
2018-05-16T11:06:48.664Z,4.77
2018-05-16T11:11:43.079Z,5.03
2018-05-16T11:16:39.030Z,6.73
2018-05-16T11:21:33.537Z,8.87
2018-05-16T11:26:31.566Z,7.93
2018-05-16T11:31:27.335Z,8.03
2018-05-16T11:41:24.117Z,8.70
2018-05-16T11:46:19.566Z,7.47
2018-05-16T11:56:17.551Z,8.90
2018-05-16T12:01:13.213Z,7.23
2018-05-16T12:06:11.184Z,10.87
2018-05-16T12:16:41.823Z,5.27
2018-05-16T12:21:41.508Z,5.60
2018-05-16T12:26:46.131Z,5.53
2018-05-16T12:31:46.354Z,2.57
2018-05-16T12:36:42.395Z,2.37
2018-05-16T12:41:42.787Z,4.00
2018-05-16T12:52:10.512Z,3.07
2018-05-16T12:57:06.075Z,3.43
2018-05-16T13:01:59.949Z,4.63
2018-05-16T13:06:56.431Z,6.23
2018-05-16T13:11:54.656Z,5.40
2018-05-16T13:16:53.917Z,4.57
2018-05-16T13:21:52.869Z,5.70
2018-05-16T13:27:00.876Z,6.57
2018-05-16T13:37:12.245Z,7.87
2018-05-16T13:42:13.283Z,8.87
2018-05-16T13:47:14.980Z,8.43
2018-05-16T13:52:13.605Z,9.27
2018-05-16T13:57:15.285Z,8.10
2018-05-16T14:02:13.730Z,9.70
2018-05-16T14:07:14.780Z,9.03
2018-05-16T14:12:13.824Z,8.90
2018-05-16T14:17:18.613Z,7.43
2018-05-16T14:27:46.577Z,7.00
2018-05-16T14:32:49.991Z,7.00
2018-05-16T14:37:45.412Z,7.93
2018-05-16T14:42:40.891Z,6.17
2018-05-16T14:47:34.705Z,7.57
2018-05-16T14:52:30.120Z,6.20
2018-05-16T14:57:25.161Z,5.60
2018-05-16T15:02:19.275Z,4.90
2018-05-16T15:07:12.902Z,3.30
2018-05-16T15:12:06.819Z,3.90
2018-05-16T15:17:04.914Z,4.00
2018-05-16T15:21:59.813Z,4.70
2018-05-16T15:26:54.364Z,6.20
2018-05-16T15:31:48.210Z,4.93
2018-05-16T15:41:41.092Z,5.00
2018-05-16T15:46:36.330Z,5.97
2018-05-16T15:51:30.854Z,6.63
2018-05-16T15:56:24.565Z,5.37
2018-05-16T16:01:18.220Z,5.73
2018-05-16T16:06:12.654Z,6.20
2018-05-16T16:11:08.170Z,7.30
2018-05-16T16:16:02.151Z,7.23
2018-05-16T16:20:56.286Z,7.43
2018-05-16T16:25:51.856Z,7.30
2018-05-16T16:30:45.640Z,6.97
2018-05-16T16:41:10.925Z,8.63
2018-05-16T16:46:06.584Z,8.13
2018-05-16T16:51:00.065Z,7.70
2018-05-16T16:55:53.535Z,9.77
2018-05-16T17:00:47.082Z,7.50
2018-05-16T17:05:40.610Z,7.43
2018-05-16T17:10:34.294Z,7.80
2018-05-16T17:15:27.788Z,8.20
2018-05-16T17:20:21.913Z,8.03
2018-05-16T17:25:16.242Z,7.60
2018-05-16T17:30:09.762Z,8.47
2018-05-16T17:35:03.943Z,8.40
2018-05-16T17:39:58.155Z,9.33
2018-05-16T17:44:51.873Z,7.87
2018-05-16T17:49:46.203Z,9.63
2018-05-16T17:54:39.891Z,9.23
2018-05-16T17:59:33.372Z,8.97
2018-05-16T18:04:26.847Z,8.87
2018-05-16T18:09:21.227Z,8.70
2018-05-16T18:20:15.662Z,8.77
2018-05-16T18:25:10.067Z,8.63
2018-05-16T18:30:04.965Z,9.80
2018-05-16T18:34:59.808Z,10.33
2018-05-16T18:39:54.334Z,10.43
2018-05-16T18:44:48.130Z,10.67
2018-05-16T18:49:42.982Z,10.60
2018-05-16T18:54:37.482Z,11.67
2018-05-16T18:59:31.258Z,11.40
2018-05-16T19:04:25.712Z,10.77
2018-05-16T19:09:19.451Z,10.90
2018-05-16T19:14:13.205Z,11.97
2018-05-16T19:28:17.369Z,13.10
2018-05-16T19:33:11.762Z,12.93
2018-05-16T19:38:05.462Z,13.17
2018-05-16T19:42:59.190Z,14.47
2018-05-16T19:47:52.976Z,16.10
2018-05-16T19:52:47.981Z,15.47
2018-05-16T19:57:43.544Z,15.67
2018-05-16T20:02:38.052Z,19.40
2018-05-16T20:07:31.751Z,18.77
2018-05-16T20:12:26.446Z,19.60
2018-05-16T20:17:20.180Z,16.60
2018-05-16T20:22:15.143Z,17.60
2018-05-16T20:27:08.872Z,16.30
2018-05-16T20:32:03.519Z,22.23
2018-05-16T20:36:57.749Z,22.43
2018-05-16T20:41:52.353Z,23.03
2018-05-16T20:46:46.149Z,16.47
2018-05-16T20:51:39.847Z,21.30
2018-05-16T20:56:33.563Z,21.50
2018-05-16T21:01:27.226Z,19.60
2018-05-16T21:06:23.061Z,19.03
2018-05-16T21:11:17.421Z,19.80
2018-05-16T21:16:11.196Z,21.30
2018-05-16T21:21:05.687Z,22.07
2018-05-16T21:25:59.422Z,18.10
2018-05-16T21:30:55.916Z,20.43
2018-05-16T21:35:49.660Z,20.93
2018-05-16T21:40:43.595Z,19.93
2018-05-16T21:45:38.239Z,18.27
2018-05-16T21:50:32.099Z,17.50
2018-05-16T21:55:25.881Z,17.10
2018-05-16T22:00:20.926Z,18.53
2018-05-16T22:05:15.106Z,18.77
2018-05-16T22:10:08.910Z,26.17
2018-05-16T22:15:03.484Z,22.60
2018-05-16T22:19:57.186Z,19.80
2018-05-16T22:24:51.592Z,18.80
2018-05-16T22:29:45.403Z,19.80
2018-05-16T22:34:45.377Z,20.30
2018-05-16T22:39:44.753Z,17.90
2018-05-16T22:44:39.545Z,16.30
2018-05-16T22:49:33.623Z,15.73
2018-05-16T22:54:28.928Z,15.00
2018-05-16T22:59:22.922Z,16.10
2018-05-16T23:04:17.572Z,14.00
2018-05-16T23:09:11.943Z,14.93
2018-05-16T23:14:05.795Z,16.70
2018-05-16T23:18:59.618Z,14.73
2018-05-16T23:23:57.766Z,18.17
2018-05-16T23:28:52.478Z,15.40
2018-05-16T23:33:46.435Z,14.90
2018-05-16T23:38:41.066Z,15.97
2018-05-16T23:43:34.895Z,14.13
2018-05-16T23:48:28.664Z,16.23
2018-05-16T23:53:22.647Z,20.27
2018-05-16T23:58:17.237Z,19.40
